Here is the Quick Look data you requested

The Data originates at the National Weather Service, and is made available here by the UAlbany Department of Atmospheric and Environmental Sciences

Surface Observations

KOXB 180153Z AUTO 10003KT 10SM -RA OVC040 05/03 A2997 RMK AO2 RAB19 SLP148
 P0000 T00500028=
KOXB 180236Z AUTO 11005KT 6SM RA BR BKN027 BKN055 OVC090 05/04 A2996 RMK AO2
 P0007 T00500039=
KOXB 180253Z AUTO 14003KT 5SM RA BR BKN019 BKN025 OVC038 05/04 A2996 RMK AO2
 SLP145 P0010 60010 T00500044 56027=
KOXB 180320Z AUTO VRB04KT 5SM RA BR SCT017 OVC070 06/04 A2994 RMK AO2 P0005
 T00560044=
KOXB 180353Z AUTO VRB05KT 5SM -RA BR FEW012 OVC050 06/05 A2993 RMK AO2 SLP134
 P0011 T00560050=
KOXB 180416Z AUTO 4SM RA BR FEW004 BKN010 OVC049 06/05 A2992 RMK AO2 P0004
 T00560050=
KOXB 180446Z AUTO 22005KT 5SM -RA BR BKN004 OVC035 06/06 A2991 RMK AO2 P0008
 T00560056=
KOXB 180453Z AUTO 22005KT 5SM -RA BR BKN002 OVC035 06/06 A2992 RMK AO2 SLP130
 P0009 T00560056 400561011=
KOXB 180553Z AUTO 22006KT 8SM -RA OVC002 06/06 A2991 RMK AO2 SLP127 P0003 60033
 T00610056 10061 20044 56018=
KOXB 180653Z AUTO 22003KT 7SM -RA BKN004 OVC010 06/06 A2989 RMK AO2 SLP122
 P0004 T00610061=
KOXB 180742Z AUTO 22006KT 5SM -RA BR OVC003 06/06 A2985 RMK AO2 P0002 T00610056=
KOXB 180753Z AUTO VRB04KT 4SM -RA BR OVC002 06/06 A2984 RMK AO2 SLP104 P0003
 T00610056=
KOXB 180824Z AUTO 22007KT 6SM -RA BR FEW002 BKN055 OVC080 06/06 A2984 RMK AO2
 P0003 T00610061=
KOXB 180831Z AUTO 21005KT 7SM -RA FEW004 BKN009 OVC080 07/06 A2983 RMK AO2
 P0004 T00670061=
KOXB 180837Z AUTO 20004KT 8SM -RA SCT006 BKN019 OVC085 07/06 A2982 RMK AO2
 PRESFR P0004 T00670061=
KOXB 180853Z AUTO 21006KT 7SM -RA SCT009 BKN035 OVC110 06/06 A2981 RMK AO2
 SLP093 P0005 60012 T00610061 55029=
KOXB 180953Z AUTO 24007G15KT 6SM RA BR FEW008 OVC070 07/06 A2981 RMK AO2 SLP093
 P0003 T00670056=
KOXB 181053Z AUTO 20007KT 9SM -RA FEW060 OVC075 06/06 A2977 RMK AO2 SLP080
 P0005 T00610056=
KOXB 181153Z AUTO 21004KT 10SM OVC090 06/06 A2977 RMK AO2 RAE50 SLP081 P0003
 60023 70056 T00610056 10067 20061 55013=
KOXB 181214Z AUTO 31010G19KT 9SM -RA SCT005 OVC090 07/06 A2982 RMK AO2 RAB1158
 PRESRR P0001 T00670061=
KOXB 181219Z AUTO 31008G16KT 10SM -RA BKN004 OVC090 07/06 A2982 RMK AO2 RAB1158
 P0001 T00670061=
KOXB 181253Z AUTO 30007KT 7SM -RA OVC004 07/06 A2985 RMK AO2 RAB1158 SLP108
 P0001 T00670061=
KOXB 181310Z AUTO 31011G18KT 8SM -RA OVC005 07/06 A2987 RMK AO2 P0001 T00670061=
KOXB 181353Z AUTO 29006KT 6SM -RA BR SCT006 BKN013 OVC025 06/06 A2989 RMK AO2
 SLP121 P0002 T00610056=
KOXB 181400Z AUTO 28004KT 10SM FEW006 SCT015 OVC025 06/06 A2987 RMK AO2 RAE1359
 P0000 T00610056=
KOXB 181353Z AUTO 29006KT 6SM -RA BR SCT006 BKN013 OVC025 06/06 A2989 RMK AO2
 SLP121 P0002 T00610056=
KOXB 181435Z AUTO 28006KT 10SM OVC030 07/06 A2990 RMK AO2 RAE1359 P0000
 T00670061=
KOXB 181453Z AUTO 30008KT 10SM OVC031 07/06 A2990 RMK AO2 RAE1359 SLP124 P0000
 60003 T00720061 51043=
KOXB 181553Z AUTO 30009G14KT 10SM OVC035 09/05 A2993 RMK AO2 SLP133 T00890050=
KOXB 181653Z AUTO 31011G19KT 10SM FEW024 BKN038 10/04 A2994 RMK AO2 SLP138
 T01000044=
KOXB 181753Z AUTO 33013G19KT 10SM FEW041 11/03 A2995 RMK AO2 SLP141 60003
 T01060028 10106 20061 51018=
KOXB 181853Z AUTO 31015G25KT 10SM CLR 11/01 A2997 RMK AO2 SLP147 T01110011=
KOXB 181953Z AUTO 32018G26KT 10SM FEW049 12/01 A2999 RMK AO2 PK WND 31026/1951
 SLP154 T01170006=
KOXB 182053Z AUTO 34012G24KT 10SM FEW050 10/M01 A3003 RMK AO2 SLP168 T01001006
 53026=
KOXB 182153Z AUTO 32017G22KT 10SM CLR 07/M02 A3008 RMK AO2 PK WND 33027/2103
 SLP186 T00721022=
KOXB 182253Z AUTO 32012G19KT 280V340 10SM BKN060 07/M03 A3013 RMK AO2 SLP202
 T00721033=
KOXB 182353Z AUTO 33013G22KT 10SM SCT065 07/M03 A3018 RMK AO2 SLP220 T00671033
 10117 20067 51052=
KOXB 190053Z AUTO 33014G23KT 10SM FEW070 06/M04 A3023 RMK AO2 SLP235 T00561039=
KOXB 190153Z AUTO 33009KT 10SM CLR 04/M04 A3027 RMK AO2 PK WND 34026/0058
 SLP250 T00441039=
KOXB 190253Z AUTO 34015KT 10SM CLR 04/M04 A3030 RMK AO2 SLP260 T00441044 51041=
KOXB 190353Z AUTO 34011G17KT 10SM CLR 03/M04 A3034 RMK AO2 SLP273 T00331039=
KOXB 190453Z AUTO 34013G19KT 10SM CLR 03/M06 A3038 RMK AO2 SLP286 T00281056
 401170028=
KOXB 190553Z AUTO 33007KT 10SM CLR 02/M06 A3041 RMK AO2 SLP297 T00221056 10067
 20022 51037=
KOXB 190653Z AUTO 33007KT 10SM CLR 01/M06 A3044 RMK AO2 SLP306 T00111056=
KOXB 190753Z AUTO 33009KT 10SM CLR 01/M06 A3046 RMK AO2 SLP313 T00061061=